Time;durP1;ratioP1;P1;durP2;ratioP2;P2;SDS_P1;SDS_P2;PMS_P1;PMS_P2;Temp;Humidity;BMP_temperature;BMP_pressure;BME280_temperature;BME280_humidity;BME280_pressure;Samples;Min_cycle;Max_cycle;Signal;HPM_P1;HPM_P2
2021/12/17 00:05:13;;;;;;;18.37;5.95;;;;;;;4.45;85.78;101767.20;2080525;83;21089;-76
2021/12/17 00:08:14;;;;;;;20.48;5.20;;;;;;;4.45;85.81;101764.57;2069231;83;21009;-76
2021/12/17 00:11:17;;;;;;;17.25;5.50;;;;;;;4.46;85.85;101770.20;2078655;83;20967;-76
2021/12/17 00:14:26;;;;;;;19.65;5.95;;;;;;;4.46;85.67;101776.30;2082467;82;21676;-77
2021/12/17 00:17:28;;;;;;;18.62;5.03;;;;;;;4.46;85.42;101755.74;2083770;82;21013;-76
2021/12/17 00:44:15;;;;;;;14.43;5.17;;;;;;;4.41;85.26;101771.76;2085121;82;21155;-79
2021/12/17 00:50:21;;;;;;;19.70;5.35;;;;;;;4.40;85.00;101775.33;2085017;82;21604;-78
2021/12/17 00:53:07;;;;;;;19.62;4.97;;;;;;;4.39;84.92;101765.77;2066098;83;21046;-78
2021/12/17 00:56:10;;;;;;;21.85;5.05;;;;;;;4.36;84.86;101756.70;2089078;82;21108;-77
2021/12/17 00:59:12;;;;;;;22.55;4.85;;;;;;;4.35;85.00;101764.23;2077384;83;21105;-78
2021/12/17 01:02:18;;;;;;;18.15;4.30;;;;;;;4.34;84.75;101754.66;2073132;83;21502;-78
2021/12/17 01:05:29;;;;;;;17.82;4.90;;;;;;;4.35;84.87;101766.85;2083661;82;22302;-77
2021/12/17 01:08:31;;;;;;;22.58;5.17;;;;;;;4.35;84.81;101774.73;2091145;82;21016;-77
2021/12/17 01:11:35;;;;;;;16.25;6.20;;;;;;;4.36;84.84;101779.52;2093499;83;21100;-76
2021/12/17 01:14:56;;;;;;;26.52;5.45;;;;;;;4.34;84.82;101773.05;2087368;82;21132;-76
2021/12/17 01:18:08;;;;;;;22.50;5.05;;;;;;;4.32;84.85;101792.00;2068581;83;21603;-76
2021/12/17 01:44:51;;;;;;;16.37;5.50;;;;;;;4.24;85.14;101775.33;2077738;82;20988;-76
2021/12/17 01:47:53;;;;;;;16.37;4.95;;;;;;;4.24;85.16;101770.55;2081608;82;21171;-76
2021/12/17 02:00:43;;;;;;;27.62;5.22;;;;;;;4.19;85.38;101766.85;2081518;83;21579;-76
2021/12/17 02:03:45;;;;;;;15.15;5.55;;;;;;;4.18;85.45;101756.45;2083025;83;21019;-77
2021/12/17 02:06:47;;;;;;;23.20;5.80;;;;;;;4.18;85.45;101748.09;2096103;82;21322;-76
2021/12/17 02:33:48;;;;;;;20.23;5.22;;;;;;;4.12;85.77;101772.55;2087336;83;21065;-76
2021/12/17 02:36:51;;;;;;;17.52;5.10;;;;;;;4.14;85.73;101778.55;2086480;82;21151;-76
2021/12/17 02:46:32;;;;;;;22.65;6.12;;;;;;;4.16;85.72;101784.10;2094773;82;21052;-77
2021/12/17 02:49:35;;;;;;;15.50;4.87;;;;;;;4.15;85.64;101784.20;2090031;83;21106;-76
2021/12/17 02:52:40;;;;;;;16.20;4.80;;;;;;;4.14;85.53;101789.06;2092538;82;21084;-76
2021/12/17 02:55:48;;;;;;;17.60;5.30;;;;;;;4.13;85.24;101785.59;2084014;82;21014;-76
2021/12/17 02:58:49;;;;;;;18.73;5.08;;;;;;;4.12;85.27;101798.83;2081187;83;21663;-77
2021/12/17 03:01:52;;;;;;;18.57;5.03;;;;;;;4.12;85.29;101800.98;2088145;83;21036;-76
2021/12/17 03:04:54;;;;;;;16.12;4.95;;;;;;;4.14;85.20;101790.38;2071796;82;21015;-76
2021/12/17 03:07:57;;;;;;;22.45;5.55;;;;;;;4.14;85.22;101787.74;2090365;82;21108;-76
2021/12/17 03:11:01;;;;;;;21.20;5.83;;;;;;;4.12;85.10;101788.31;2076320;82;21022;-77
2021/12/17 03:14:03;;;;;;;23.45;5.25;;;;;;;4.14;85.12;101782.48;2084717;82;21091;-78
2021/12/17 03:17:09;;;;;;;28.60;7.05;;;;;;;4.14;84.97;101796.50;2094768;83;21068;-76
2021/12/17 03:23:42;;;;;;;18.15;5.90;;;;;;;4.14;84.74;101795.19;2085817;83;21076;-76
2021/12/17 03:26:51;;;;;;;21.40;6.17;;;;;;;4.15;84.92;101797.34;2078089;82;21095;-76
2021/12/17 03:29:53;;;;;;;18.20;5.62;;;;;;;4.12;84.86;101803.61;2085723;83;21037;-76
2021/12/17 03:32:55;;;;;;;14.18;5.50;;;;;;;4.12;84.96;101810.17;2079709;83;21052;-76
2021/12/17 03:36:00;;;;;;;23.00;5.58;;;;;;;4.12;85.03;101802.77;2094373;82;21087;-76
2021/12/17 03:39:02;;;;;;;21.80;5.45;;;;;;;4.10;85.05;101791.02;2091309;83;21084;-76
2021/12/17 03:42:07;;;;;;;19.27;6.08;;;;;;;4.10;85.07;101791.48;2093653;83;21083;-77
2021/12/17 03:45:10;;;;;;;20.72;6.45;;;;;;;4.09;85.17;101785.86;2097047;83;21020;-76
2021/12/17 03:48:16;;;;;;;21.68;5.83;;;;;;;4.07;85.18;101785.93;2089970;83;21034;-76
2021/12/17 03:51:19;;;;;;;24.45;6.80;;;;;;;4.06;85.26;101784.25;2082976;83;21135;-76
2021/12/17 03:54:21;;;;;;;19.27;5.87;;;;;;;4.04;85.31;101788.26;2093786;83;21072;-76
2021/12/17 03:57:22;;;;;;;22.48;6.35;;;;;;;4.03;85.40;101769.50;2073772;83;21112;-76
2021/12/17 04:00:27;;;;;;;18.82;6.00;;;;;;;4.04;85.42;101769.87;2100444;82;21058;-76
2021/12/17 04:03:30;;;;;;;23.83;6.35;;;;;;;4.03;85.41;101768.66;2089335;83;22495;-76
2021/12/17 04:06:33;;;;;;;19.40;5.70;;;;;;;4.02;85.35;101774.35;2093161;83;21579;-76
2021/12/17 04:09:51;;;;;;;18.70;5.67;;;;;;;4.02;85.32;101765.16;2075500;83;21446;-76
2021/12/17 04:16:00;;;;;;;17.55;5.45;;;;;;;3.98;85.24;101768.05;2081645;82;22578;-76
2021/12/17 04:19:00;;;;;;;18.32;5.42;;;;;;;3.96;85.12;101759.41;2085676;83;21056;-77
2021/12/17 04:22:04;;;;;;;16.87;5.10;;;;;;;3.96;85.16;101762.03;2097826;83;21148;-76
2021/12/17 04:25:07;;;;;;;16.65;5.08;;;;;;;3.97;85.19;101750.58;2078821;83;21160;-75
2021/12/17 04:28:09;;;;;;;16.57;5.17;;;;;;;3.97;85.11;101746.64;2092468;83;21487;-76
2021/12/17 04:31:11;;;;;;;22.52;6.50;;;;;;;3.96;85.14;101756.30;2092091;82;21749;-76
2021/12/17 04:34:12;;;;;;;19.70;5.85;;;;;;;3.93;84.99;101752.53;2089934;82;21588;-75
2021/12/17 04:37:14;;;;;;;16.45;5.08;;;;;;;3.89;84.78;101748.40;2087722;82;21133;-75
2021/12/17 04:40:21;;;;;;;15.15;4.87;;;;;;;3.86;84.69;101743.31;2080408;83;21039;-76
2021/12/17 04:43:58;;;;;;;22.05;6.05;;;;;;;3.80;84.58;101738.37;2087382;83;21078;-76
2021/12/17 04:46:34;;;;;;;24.90;6.53;;;;;;;3.77;84.64;101737.23;2092366;82;21142;-76
2021/12/17 04:59:34;;;;;;;25.05;5.25;;;;;;;3.75;84.75;101743.05;2094993;83;21560;-75
2021/12/17 05:02:42;;;;;;;17.77;5.55;;;;;;;3.74;84.73;101741.34;2083360;82;21020;-75
2021/12/17 05:05:42;;;;;;;17.50;5.40;;;;;;;3.76;84.88;101738.17;2080980;82;21096;-76
2021/12/17 05:08:46;;;;;;;17.37;6.37;;;;;;;3.77;84.92;101740.73;2090324;83;21596;-77
2021/12/17 05:18:36;;;;;;;18.40;5.25;;;;;;;3.74;84.57;101737.40;2078509;83;21018;-77
2021/12/17 05:21:32;;;;;;;21.33;6.85;;;;;;;3.73;84.49;101729.16;2082478;83;21053;-78
2021/12/17 05:24:35;;;;;;;24.75;5.00;;;;;;;3.74;84.56;101728.21;2085667;82;21674;-77
2021/12/17 05:27:38;;;;;;;23.73;5.15;;;;;;;3.74;84.56;101732.15;2093294;83;21116;-76
2021/12/17 05:30:45;;;;;;;23.40;5.75;;;;;;;3.73;84.49;101729.16;2055447;83;21010;-78
2021/12/17 05:33:44;;;;;;;16.42;5.12;;;;;;;3.73;84.56;101729.99;2086648;82;21087;-75
2021/12/17 05:36:47;;;;;;;23.35;5.78;;;;;;;3.71;84.47;101721.81;2081393;82;21038;-74
2021/12/17 05:39:50;;;;;;;18.07;4.95;;;;;;;3.70;84.43;101726.70;2097548;82;21063;-77
2021/12/17 05:42:55;;;;;;;16.02;4.37;;;;;;;3.69;84.19;101738.11;2063025;83;21121;-75
2021/12/17 05:48:58;;;;;;;15.80;5.03;;;;;;;3.68;83.42;101718.05;2076861;82;21065;-76
2021/12/17 05:52:01;;;;;;;19.55;4.95;;;;;;;3.65;83.28;101734.81;2090913;82;21043;-77
2021/12/17 05:55:04;;;;;;;26.12;5.30;;;;;;;3.60;83.51;101727.64;2088002;83;21138;-74
2021/12/17 05:58:08;;;;;;;17.23;4.45;;;;;;;3.55;83.40;101734.47;2089344;83;21487;-75
2021/12/17 06:01:09;;;;;;;13.90;4.30;;;;;;;3.53;83.48;101752.06;2083596;82;21057;-75
2021/12/17 06:04:13;;;;;;;16.95;4.42;;;;;;;3.53;83.60;101745.50;2093299;83;21108;-78
2021/12/17 06:07:28;;;;;;;20.85;5.40;;;;;;;3.53;83.57;101760.41;2094128;82;21076;-75
2021/12/17 06:10:30;;;;;;;16.48;4.95;;;;;;;3.53;83.46;101766.97;2089515;83;21076;-76
2021/12/17 06:13:32;;;;;;;21.35;4.85;;;;;;;3.51;83.44;101761.79;2088032;82;21137;-75
2021/12/17 06:16:34;;;;;;;19.62;4.25;;;;;;;3.48;83.31;101756.70;2079639;82;21060;-77
2021/12/17 06:19:37;;;;;;;12.53;3.85;;;;;;;3.45;83.41;101746.38;2086628;83;21107;-77
2021/12/17 06:22:40;;;;;;;15.98;4.62;;;;;;;3.45;83.52;101766.05;2077930;83;21044;-77
2021/12/17 06:25:43;;;;;;;22.82;4.42;;;;;;;3.46;83.52;101766.43;2093441;82;21104;-81
2021/12/17 06:28:49;;;;;;;13.98;4.50;;;;;;;3.47;83.62;101774.70;2076432;83;21021;-76
2021/12/17 06:31:48;;;;;;;23.35;4.85;;;;;;;3.51;83.54;101774.91;2091074;83;21609;-78
2021/12/17 06:34:50;;;;;;;20.75;5.15;;;;;;;3.52;83.64;101771.38;2080113;82;21552;-78
2021/12/17 06:37:51;;;;;;;16.70;6.05;;;;;;;3.53;83.58;101768.28;2087645;83;21357;-78
2021/12/17 06:40:58;;;;;;;17.50;5.58;;;;;;;3.54;83.66;101764.72;2092314;82;21573;-77
2021/12/17 06:44:00;;;;;;;18.87;4.83;;;;;;;3.54;83.76;101769.50;2092998;83;21069;-76
2021/12/17 07:33:04;;;;;;;19.70;5.58;;;;;;;3.65;83.71;101758.91;2079277;83;21014;-81
2021/12/17 07:36:07;;;;;;;21.80;6.10;;;;;;;3.65;83.60;101756.28;2086447;82;21107;-79
2021/12/17 07:39:02;;;;;;;17.45;5.15;;;;;;;3.65;83.45;101754.97;2091012;82;21052;-74
2021/12/17 07:42:22;;;;;;;16.90;4.58;;;;;;;3.68;83.62;101756.11;2093165;83;21001;-77
2021/12/17 07:45:29;;;;;;;22.82;4.47;;;;;;;3.69;83.59;101753.86;2075474;83;21614;-75
2021/12/17 07:48:37;;;;;;;14.70;5.55;;;;;;;3.72;83.41;101735.34;2086712;82;21081;-75
2021/12/17 07:51:40;;;;;;;16.90;5.47;;;;;;;3.73;83.29;101755.41;2093605;82;21316;-75
2021/12/17 07:54:43;;;;;;;20.88;5.60;;;;;;;3.74;83.20;101763.66;2073868;83;21105;-75
2021/12/17 07:57:45;;;;;;;19.32;5.37;;;;;;;3.72;82.96;101787.38;2094266;83;21497;-75
2021/12/17 08:00:48;;;;;;;18.50;4.87;;;;;;;3.72;82.92;101791.32;2087907;83;21123;-75
2021/12/17 08:03:50;;;;;;;15.05;4.85;;;;;;;3.73;82.96;101805.30;2091665;83;21060;-75
2021/12/17 08:06:57;;;;;;;20.68;6.85;;;;;;;3.71;82.50;101800.58;2084933;82;21017;-75
2021/12/17 08:10:00;;;;;;;15.08;6.65;;;;;;;3.71;82.80;101804.05;2082390;82;21591;-77
2021/12/17 08:13:02;;;;;;;17.67;4.95;;;;;;;3.71;82.75;101794.02;2085867;83;20996;-75
2021/12/17 08:26:16;;;;;;;13.60;5.47;;;;;;;3.72;82.46;101795.73;2084552;83;21098;-75
2021/12/17 08:32:29;;;;;;;13.28;4.83;;;;;;;3.71;82.54;101811.08;2085902;83;20146;-74
2021/12/17 08:35:35;;;;;;;16.50;5.28;;;;;;;3.72;82.50;101818.89;2089912;82;21096;-75
2021/12/17 08:38:39;;;;;;;17.10;5.50;;;;;;;3.72;82.46;101824.14;2074384;83;22461;-75
2021/12/17 08:41:43;;;;;;;20.45;6.37;;;;;;;3.75;82.09;101834.95;2074559;83;21207;-74
2021/12/17 08:44:45;;;;;;;18.85;5.90;;;;;;;3.76;82.38;101833.53;2071781;82;21116;-74
2021/12/17 08:47:52;;;;;;;16.27;5.58;;;;;;;3.78;82.48;101829.06;2061600;82;21033;-75
2021/12/17 08:50:55;;;;;;;18.12;5.33;;;;;;;3.77;82.22;101825.19;2091324;83;21081;-75
2021/12/17 08:53:57;;;;;;;11.50;4.72;;;;;;;3.76;82.12;101828.75;2072548;82;21090;-75
2021/12/17 08:56:59;;;;;;;13.35;4.70;;;;;;;3.78;82.18;101824.28;2076257;83;21109;-77
2021/12/17 09:00:08;;;;;;;12.88;5.20;;;;;;;3.78;81.83;101829.06;2084483;83;21092;-75
2021/12/17 09:03:14;;;;;;;15.32;5.40;;;;;;;3.77;81.91;101826.50;2059482;83;21662;-74
2021/12/17 09:06:16;;;;;;;23.27;6.12;;;;;;;3.77;82.15;101809.00;2083146;82;21801;-78
2021/12/17 09:09:21;;;;;;;13.28;5.10;;;;;;;3.76;81.92;101823.50;2085900;83;21037;-75
2021/12/17 09:12:23;;;;;;;11.90;5.05;;;;;;;3.77;82.11;101824.75;2079578;83;21059;-75
2021/12/17 09:15:26;;;;;;;18.10;5.30;;;;;;;3.78;81.95;101817.72;2084897;82;21113;-77
2021/12/17 09:18:37;;;;;;;13.80;5.30;;;;;;;3.80;81.97;101811.89;2095393;83;21060;-75
2021/12/17 09:21:40;;;;;;;17.55;6.25;;;;;;;;;;2098059;82;21122;-74
2021/12/17 09:25:03;;;;;;;18.48;5.47;;;;;;;3.83;81.95;101810.45;2030024;85;21002;-75
2021/12/17 09:28:08;;;;;;;17.50;5.22;;;;;;;3.82;81.78;101820.55;2036329;85;22682;-75
2021/12/17 09:31:24;;;;;;;11.22;4.45;;;;;;;3.82;81.95;101817.92;2066517;83;21014;-77
2021/12/17 09:34:25;;;;;;;11.68;4.67;;;;;;;3.83;81.95;101803.88;2093713;83;21107;-76
2021/12/17 09:37:27;;;;;;;21.87;5.30;;;;;;;3.86;81.82;101805.03;2090974;83;21033;-78
2021/12/17 09:40:29;;;;;;;24.85;7.72;;;;;;;3.86;81.48;101802.84;2087368;83;21104;-75
2021/12/17 09:43:32;;;;;;;21.10;6.15;;;;;;;3.86;81.50;101806.34;2091144;83;21006;-76
2021/12/17 09:46:34;;;;;;;18.07;5.15;;;;;;;3.88;81.64;101814.97;2073984;83;21057;-76
2021/12/17 09:49:35;;;;;;;15.68;5.08;;;;;;;3.90;81.59;101822.77;2089315;83;21099;-77
2021/12/17 09:52:37;;;;;;;17.52;5.95;;;;;;;3.91;81.04;101816.11;2082483;82;21102;-76
2021/12/17 09:55:39;;;;;;;18.67;6.65;;;;;;;3.94;81.38;101812.47;2088642;83;21548;-79
2021/12/17 09:58:40;;;;;;;20.70;5.65;;;;;;;3.93;81.25;101812.94;2086457;82;21048;-77
2021/12/17 10:01:45;;;;;;;15.03;4.83;;;;;;;3.95;81.32;101809.78;2075197;83;21065;-78
2021/12/17 10:04:46;;;;;;;13.25;4.92;;;;;;;3.97;80.90;101795.23;2089078;82;21079;-78
2021/12/17 10:08:02;;;;;;;18.05;5.65;;;;;;;3.99;81.07;101793.37;2082802;82;21017;-76
2021/12/17 10:11:06;;;;;;;15.25;5.70;;;;;;;3.99;80.65;101799.95;2064645;83;21053;-82
2021/12/17 10:14:19;;;;;;;19.12;5.90;;;;;;;3.96;80.72;101810.15;2078820;82;22665;-76
2021/12/17 10:17:20;;;;;;;21.30;5.92;;;;;;;3.95;80.85;101814.19;2088541;83;21426;-76
2021/12/17 10:20:24;;;;;;;17.42;6.08;;;;;;;3.95;80.94;101817.66;2092167;82;21032;-76
2021/12/17 10:23:28;;;;;;;15.30;6.03;;;;;;;3.93;80.69;101819.52;2091737;82;21043;-76
2021/12/17 10:26:42;;;;;;;19.27;7.20;;;;;;;3.94;80.76;101833.05;2080890;83;21085;-75
2021/12/17 10:29:43;;;;;;;14.33;5.53;;;;;;;3.93;80.65;101833.11;2091324;82;21104;-76
2021/12/17 10:32:55;;;;;;;13.80;5.83;;;;;;;3.93;80.88;101837.05;2080865;83;21115;-75
2021/12/17 10:36:02;;;;;;;20.08;6.12;;;;;;;3.92;80.72;101824.39;2082502;83;21049;-76
2021/12/17 10:39:07;;;;;;;12.28;4.85;;;;;;;3.92;80.72;101831.42;2099730;82;21096;-75
2021/12/17 10:42:08;;;;;;;16.87;5.47;;;;;;;3.92;80.81;101824.39;2068464;83;21180;-75
2021/12/17 10:45:13;;;;;;;15.72;5.83;;;;;;;3.93;80.86;101830.02;2085974;83;21096;-76
2021/12/17 10:48:50;;;;;;;16.93;6.60;;;;;;;3.94;80.64;101833.48;2095005;82;21039;-75
2021/12/17 10:54:42;;;;;;;13.28;4.87;;;;;;;3.92;80.79;101806.48;2082382;82;21105;-75
2021/12/17 10:57:47;;;;;;;16.62;5.05;;;;;;;3.93;80.78;101820.82;2075525;83;21064;-77
2021/12/17 11:00:57;;;;;;;16.65;6.35;;;;;;;3.97;80.98;101805.73;2074624;82;21104;-76
2021/12/17 11:04:26;;;;;;;19.80;6.55;;;;;;;3.97;80.80;101813.17;2080547;82;21075;-80
2021/12/17 11:07:27;;;;;;;18.12;6.97;;;;;;;3.99;80.86;101815.70;2078430;83;21115;-75
2021/12/17 11:10:32;;;;;;;13.62;6.12;;;;;;;3.99;80.56;101807.35;2073807;82;21076;-76
2021/12/17 11:13:34;;;;;;;18.20;6.58;;;;;;;4.01;80.91;101810.75;2084533;82;21020;-81
2021/12/17 11:16:39;;;;;;;20.75;6.15;;;;;;;4.03;80.84;101816.78;2090086;82;21037;-75
2021/12/17 11:19:43;;;;;;;10.88;5.40;;;;;;;4.04;80.58;101798.77;2070791;83;20991;-76
2021/12/17 11:22:47;;;;;;;16.52;6.50;;;;;;;4.03;80.42;101805.44;2086620;82;21065;-80
2021/12/17 11:25:53;;;;;;;16.05;6.72;;;;;;;4.02;80.05;101798.46;2087134;83;21733;-75
2021/12/17 11:29:00;;;;;;;12.53;6.20;;;;;;;4.03;80.25;101794.92;2065093;83;21091;-76
2021/12/17 11:32:03;;;;;;;14.47;5.92;;;;;;;4.06;80.02;101803.95;2096123;83;21084;-76
2021/12/17 11:35:06;;;;;;;14.93;6.05;;;;;;;4.09;79.79;101806.87;2087308;82;21077;-76
2021/12/17 11:38:48;;;;;;;14.18;6.20;;;;;;;4.09;80.13;101801.62;2089107;83;21082;-77
2021/12/17 11:42:24;;;;;;;19.05;6.08;;;;;;;4.09;79.98;101797.69;2091343;82;21091;-75
2021/12/17 11:45:26;;;;;;;13.15;5.15;;;;;;;4.12;79.55;101800.98;2079676;83;20982;-75
2021/12/17 11:48:31;;;;;;;14.13;4.30;;;;;;;4.16;79.95;101787.20;2083272;83;21710;-75
2021/12/17 11:51:35;;;;;;;11.18;4.37;;;;;;;4.17;79.45;101777.09;2083728;83;21598;-76
2021/12/17 11:54:37;;;;;;;13.38;5.42;;;;;;;4.20;79.14;101783.48;2088638;82;21008;-76
2021/12/17 11:57:42;;;;;;;17.25;6.30;;;;;;;4.25;79.50;101795.88;2086767;82;21118;-79
2021/12/17 12:00:50;;;;;;;16.85;6.15;;;;;;;4.25;79.50;101778.36;2089182;83;21058;-76
2021/12/17 12:03:52;;;;;;;19.02;6.35;;;;;;;4.24;79.49;101783.69;2079215;83;21037;-76
2021/12/17 12:07:08;;;;;;;15.90;5.70;;;;;;;4.21;79.67;101786.02;2087093;82;20953;-75
2021/12/17 12:10:21;;;;;;;15.65;6.92;;;;;;;4.19;79.52;101781.30;2078436;83;21492;-76
2021/12/17 12:13:44;;;;;;;18.48;6.78;;;;;;;4.20;79.89;101787.44;2098199;82;21104;-75
2021/12/17 12:16:46;;;;;;;10.68;6.17;;;;;;;4.18;79.74;101784.03;2080763;83;21056;-76
2021/12/17 12:19:50;;;;;;;15.45;5.70;;;;;;;4.17;79.66;101796.80;2092645;82;21028;-75
2021/12/17 12:23:14;;;;;;;12.43;5.40;;;;;;;4.16;79.71;101778.01;2084431;83;21064;-83
2021/12/17 12:26:25;;;;;;;18.43;5.53;;;;;;;4.15;79.36;101775.84;2056967;83;21784;-76
2021/12/17 12:29:28;;;;;;;14.70;6.72;;;;;;;4.16;79.59;101787.20;2082120;83;21079;-75
2021/12/17 12:32:30;;;;;;;18.80;7.15;;;;;;;4.18;79.65;101772.21;2081834;83;20966;-78
2021/12/17 12:35:33;;;;;;;15.13;7.10;;;;;;;4.16;79.33;101771.44;2078227;83;21019;-78
2021/12/17 12:38:34;;;;;;;20.32;6.85;;;;;;;4.11;79.27;101770.84;2061831;82;21064;-75
2021/12/17 12:41:44;;;;;;;21.25;7.47;;;;;;;4.08;79.30;101762.66;2085542;83;21132;-77
2021/12/17 12:44:51;;;;;;;25.72;8.65;;;;;;;4.06;79.40;101759.77;2074596;83;21081;-76
2021/12/17 12:47:58;;;;;;;18.85;7.58;;;;;;;4.09;79.61;101758.28;2093048;83;21063;-73
2021/12/17 12:51:21;;;;;;;16.45;7.85;;;;;;;4.10;79.45;101754.70;2086593;83;21112;-77
2021/12/17 12:54:25;;;;;;;14.33;5.72;;;;;;;4.11;79.47;101749.82;2081018;83;21104;-77
2021/12/17 12:57:31;;;;;;;17.70;6.42;;;;;;;4.09;79.45;101759.59;2092088;82;21067;-76
2021/12/17 13:00:42;;;;;;;16.40;6.22;;;;;;;4.08;79.33;101750.00;2081195;83;21118;-76
2021/12/17 13:03:44;;;;;;;20.17;6.00;;;;;;;4.06;79.07;101766.33;2079808;83;21077;-75
2021/12/17 13:06:48;;;;;;;20.50;7.17;;;;;;;4.02;79.09;101761.22;2090540;82;21060;-77
2021/12/17 13:09:50;;;;;;;16.48;5.90;;;;;;;4.02;79.38;101753.34;2095203;83;21046;-75
2021/12/17 13:23:01;;;;;;;19.77;6.00;;;;;;;3.95;79.11;101753.31;2079811;83;21036;-76
2021/12/17 13:26:10;;;;;;;13.40;5.53;;;;;;;3.91;78.69;101756.17;2089466;82;21069;-76
2021/12/17 13:29:23;;;;;;;12.00;4.47;;;;;;;3.89;78.89;101764.16;2078168;83;21055;-76
2021/12/17 13:32:27;;;;;;;14.28;4.80;;;;;;;3.86;78.94;101756.89;2095230;83;20997;-76
2021/12/17 13:35:33;;;;;;;13.78;5.33;;;;;;;3.83;78.69;101764.49;2091455;83;21154;-76
2021/12/17 13:38:33;;;;;;;17.48;6.87;;;;;;;3.85;79.02;101770.48;2086460;83;21154;-79
2021/12/17 13:41:43;;;;;;;19.27;6.70;;;;;;;3.85;79.23;101768.33;2090861;83;21044;-78
2021/12/17 13:44:56;;;;;;;16.10;5.85;;;;;;;3.82;78.96;101779.37;2085145;81;21112;-77
2021/12/17 13:47:58;;;;;;;16.45;5.70;;;;;;;3.80;78.88;101765.95;2094038;83;21079;-79
2021/12/17 13:51:00;;;;;;;12.23;5.08;;;;;;;3.76;78.97;101774.45;2083477;82;21001;-78
2021/12/17 13:54:02;;;;;;;17.00;6.28;;;;;;;3.75;79.10;101758.33;2090828;82;21042;-78
2021/12/17 13:57:06;;;;;;;24.30;7.90;;;;;;;3.75;79.19;101774.56;2091699;82;21042;-77
2021/12/17 14:00:20;;;;;;;14.35;6.10;;;;;;;3.74;79.21;101776.78;2089213;83;21065;-76
2021/12/17 14:03:33;;;;;;;15.90;5.70;;;;;;;3.73;79.18;101781.66;2077397;82;21483;-77
2021/12/17 14:06:40;;;;;;;12.58;5.80;;;;;;;3.69;79.16;101788.86;2090365;82;21037;-79
2021/12/17 14:09:35;;;;;;;16.50;7.95;;;;;;;3.68;79.13;101787.61;2087118;82;21043;-75
2021/12/17 14:12:41;;;;;;;16.35;7.50;;;;;;;3.66;78.98;101778.53;2083414;83;21057;-76
2021/12/17 14:15:43;;;;;;;17.87;7.97;;;;;;;3.63;78.94;101796.19;2093213;83;21024;-76
2021/12/17 14:18:45;;;;;;;16.37;6.25;;;;;;;3.59;78.94;101793.73;2082925;83;21067;-76
2021/12/17 14:21:46;;;;;;;12.37;6.03;;;;;;;3.58;79.06;101795.14;2085170;82;21061;-76
2021/12/17 14:24:48;;;;;;;21.73;7.67;;;;;;;3.56;79.13;101806.18;2072255;83;21028;-75
2021/12/17 14:27:51;;;;;;;17.05;6.87;;;;;;;3.57;79.29;101792.95;2089905;83;22764;-77
2021/12/17 14:31:15;;;;;;;18.60;7.00;;;;;;;3.55;79.14;101794.00;2090794;82;21044;-75
2021/12/17 14:34:18;;;;;;;12.37;5.60;;;;;;;3.52;79.33;101793.69;2082495;83;21635;-76
2021/12/17 14:37:20;;;;;;;22.93;8.83;;;;;;;3.53;79.37;101793.22;2098333;82;21087;-75
2021/12/17 14:40:37;;;;;;;30.43;12.70;;;;;;;3.52;79.35;101806.81;2092401;82;21056;-77
2021/12/17 14:43:50;;;;;;;24.32;8.78;;;;;;;3.53;79.50;101808.97;2092765;82;21718;-76
2021/12/17 14:47:06;;;;;;;24.12;10.25;;;;;;;3.53;79.59;101810.28;2053499;82;21018;-80
2021/12/17 15:03:24;;;;;;;19.35;8.15;;;;;;;3.41;79.89;101803.90;2076665;83;21076;-81
2021/12/17 15:06:25;;;;;;;19.12;7.20;;;;;;;3.37;80.04;101810.22;2089080;83;21057;-77
2021/12/17 15:09:27;;;;;;;21.55;6.70;;;;;;;3.32;80.16;101810.91;2096404;83;21017;-75
2021/12/17 15:15:40;;;;;;;22.10;8.50;;;;;;;3.27;80.40;101823.44;2082988;83;21068;-80
2021/12/17 15:18:43;;;;;;;24.98;9.33;;;;;;;3.23;80.48;101820.09;2046814;84;21050;-75
2021/12/17 15:21:45;;;;;;;18.02;8.95;;;;;;;3.21;80.58;101821.09;2018070;85;21072;-76
2021/12/17 15:24:46;;;;;;;23.22;8.45;;;;;;;3.17;80.53;101809.08;2053271;85;21171;-75
2021/12/17 15:27:50;;;;;;;25.37;8.48;;;;;;;3.14;80.73;101804.36;2041404;85;21105;-80
2021/12/17 15:31:00;;;;;;;20.37;7.03;;;;;;;3.11;80.77;101805.84;2023285;85;21596;-76
2021/12/17 15:34:02;;;;;;;20.13;7.10;;;;;;;3.08;80.82;101804.68;2085123;83;21071;-73
2021/12/17 15:37:04;;;;;;;16.82;5.90;;;;;;;3.06;80.86;101804.37;2092276;83;21135;-73
2021/12/17 15:40:08;;;;;;;21.42;10.18;;;;;;;3.01;80.85;101799.34;2088806;82;21045;-77
2021/12/17 15:43:11;;;;;;;25.88;9.05;;;;;;;2.99;80.93;101797.75;2090871;82;21068;-74
2021/12/17 15:46:13;;;;;;;22.05;9.00;;;;;;;2.97;81.07;101812.70;2087374;82;22357;-74
2021/12/17 15:49:15;;;;;;;22.77;9.48;;;;;;;2.94;81.20;101808.46;2088479;82;21092;-71
2021/12/17 15:52:17;;;;;;;25.80;8.43;;;;;;;2.94;81.20;101815.02;2090250;82;21068;-75
2021/12/17 15:55:26;;;;;;;20.65;7.42;;;;;;;2.91;81.24;101804.68;2086156;83;21005;-74
2021/12/17 15:58:28;;;;;;;24.15;8.88;;;;;;;2.89;81.39;101806.52;2093150;82;21589;-73
2021/12/17 16:01:29;;;;;;;21.52;8.18;;;;;;;2.90;81.51;101821.31;2093714;83;21063;-76
2021/12/17 16:04:36;;;;;;;24.47;9.33;;;;;;;2.91;81.54;101812.08;2103099;83;21012;-74
2021/12/17 16:07:36;;;;;;;23.25;9.38;;;;;;;2.93;81.54;101812.02;2053372;83;21045;-75
2021/12/17 16:23:50;;;;;;;28.75;9.63;;;;;;;2.83;81.64;101793.72;2087487;82;21627;-85
2021/12/17 16:26:54;;;;;;;20.48;9.05;;;;;;;2.82;81.75;101810.39;2085134;82;21091;-75
2021/12/17 16:29:57;;;;;;;22.13;8.90;;;;;;;2.83;81.76;101812.08;2089239;83;21484;-75
2021/12/17 16:32:59;;;;;;;26.23;10.72;;;;;;;2.80;81.83;101816.16;2091641;82;21075;-77
2021/12/17 16:36:02;;;;;;;29.72;10.80;;;;;;;2.79;81.75;101827.55;2083159;82;22297;-77
2021/12/17 16:39:07;;;;;;;22.27;8.95;;;;;;;2.76;81.90;101828.58;2087375;83;21068;-77
2021/12/17 16:42:16;;;;;;;21.12;8.13;;;;;;;2.75;81.97;101828.64;2075764;83;21527;-73
2021/12/17 16:45:30;;;;;;;17.35;8.05;;;;;;;2.74;82.05;101841.38;2095949;82;21110;-73
2021/12/17 16:48:27;;;;;;;21.62;8.00;;;;;;;2.74;82.15;101837.44;2086034;83;21599;-71
2021/12/17 16:51:28;;;;;;;15.40;7.83;;;;;;;2.75;82.16;101851.77;2080541;82;21531;-73
2021/12/17 16:54:30;;;;;;;22.27;7.92;;;;;;;2.76;82.13;101846.05;2104858;83;21544;-72
2021/12/17 16:57:32;;;;;;;22.20;10.05;;;;;;;2.75;82.12;101849.14;2081611;83;21033;-82
2021/12/17 17:00:34;;;;;;;16.37;8.08;;;;;;;2.75;82.22;101849.14;2082114;83;21085;-77
2021/12/17 17:03:35;;;;;;;22.37;8.35;;;;;;;2.75;82.27;101852.23;2095996;83;21618;-83
2021/12/17 17:06:39;;;;;;;28.32;8.58;;;;;;;2.75;82.32;101843.05;2093306;83;21136;-79
2021/12/17 17:09:41;;;;;;;19.35;7.35;;;;;;;2.75;82.51;101844.36;2082282;82;21034;-81
2021/12/17 17:12:46;;;;;;;18.65;7.17;;;;;;;2.75;82.34;101861.41;2087255;83;21075;-79
2021/12/17 17:15:46;;;;;;;18.65;8.48;;;;;;;2.76;82.35;101860.47;2096289;83;21548;-83
2021/12/17 17:18:47;;;;;;;22.70;10.25;;;;;;;2.77;82.43;101856.95;2091467;82;21050;-79
2021/12/17 17:21:50;;;;;;;24.25;11.50;;;;;;;2.79;82.41;101864.25;2086538;83;21705;-82
2021/12/17 17:24:52;;;;;;;28.07;9.93;;;;;;;2.79;82.46;101861.63;2091354;82;20992;-76
2021/12/17 17:27:55;;;;;;;19.85;8.55;;;;;;;2.79;82.42;101867.75;2089142;83;21067;-74
2021/12/17 17:30:56;;;;;;;21.90;7.35;;;;;;;2.77;82.51;101863.50;2080532;83;21042;-78
2021/12/17 17:33:59;;;;;;;17.15;7.30;;;;;;;2.77;82.35;101872.67;2088441;83;21052;-77
2021/12/17 17:37:01;;;;;;;22.48;7.08;;;;;;;2.74;82.48;101864.96;2078063;83;21034;-78
2021/12/17 17:40:05;;;;;;;18.42;6.30;;;;;;;2.75;82.51;101860.09;2090060;83;21085;-77
2021/12/17 17:43:10;;;;;;;19.95;8.20;;;;;;;2.76;82.52;101861.78;2090557;82;21106;-72
2021/12/17 17:46:12;;;;;;;16.80;7.47;;;;;;;2.78;82.56;101852.08;2086749;82;21484;-77
2021/12/17 17:49:14;;;;;;;24.05;8.35;;;;;;;2.79;82.56;101859.89;2095908;83;21115;-73
2021/12/17 17:52:16;;;;;;;19.20;7.03;;;;;;;2.80;82.54;101868.59;2091209;82;21036;-78
2021/12/17 17:55:18;;;;;;;19.23;7.42;;;;;;;2.79;82.53;101870.81;2089218;83;22254;-74
2021/12/17 17:58:19;;;;;;;21.40;8.95;;;;;;;2.78;82.56;101867.34;2098456;83;20984;-76
2021/12/17 18:01:21;;;;;;;23.50;8.30;;;;;;;2.80;82.56;101870.75;2077532;83;21081;-76
2021/12/17 18:04:22;;;;;;;21.77;7.40;;;;;;;2.83;82.55;101873.69;2075198;83;21045;-76